Time;durP1;ratioP1;P1;durP2;ratioP2;P2;SDS_P1;SDS_P2;PMS_P1;PMS_P2;Temp;Humidity;BMP_temperature;BMP_pressure;BME280_temperature;BME280_humidity;BME280_pressure;Samples;Min_cycle;Max_cycle;Signal;HPM_P1;HPM_P2
2023/10/26 00:00:52;;;;;;;0.20;0.20;;;16.70;68.20;15.70;94785.00;;;;5002592;28;20226;-84
2023/10/26 00:03:19;;;;;;;0.77;0.20;;;16.70;68.50;15.70;94780.00;;;;5032158;28;20235;-83
2023/10/26 00:05:48;;;;;;;0.50;0.20;;;16.70;68.60;15.70;94777.00;;;;5005268;28;20206;-83
2023/10/26 00:08:15;;;;;;;1.40;0.53;;;16.60;68.50;15.70;94770.00;;;;5008847;28;20280;-83
2023/10/26 00:10:42;;;;;;;0.40;0.30;;;16.60;68.50;15.60;94784.00;;;;5001347;28;20229;-83
2023/10/26 00:13:10;;;;;;;0.10;0.10;;;16.60;68.50;15.60;94781.00;;;;5019026;28;20225;-85
2023/10/26 00:15:37;;;;;;;0.63;0.20;;;16.60;68.70;15.60;94769.00;;;;5016772;28;20201;-84
2023/10/26 00:18:06;;;;;;;0.10;0.10;;;16.60;68.70;15.60;94776.00;;;;5004110;28;20194;-84
2023/10/26 00:20:33;;;;;;;0.20;0.03;;;16.50;68.60;15.60;94778.00;;;;5035311;28;20229;-84
2023/10/26 00:23:01;;;;;;;0.30;0.30;;;16.50;68.60;15.60;94779.00;;;;5034696;28;20210;-84
2023/10/26 00:25:29;;;;;;;0.20;0.20;;;16.50;68.60;15.60;94787.00;;;;5018642;28;20220;-83
2023/10/26 00:27:56;;;;;;;0.20;0.10;;;16.50;68.50;15.60;94777.00;;;;5030121;28;20209;-83
2023/10/26 00:30:24;;;;;;;0.10;0.10;;;16.50;68.50;15.60;94776.00;;;;5033649;28;20303;-84
2023/10/26 00:32:51;;;;;;;1.30;0.20;;;16.50;68.50;15.60;94772.00;;;;5026841;28;20194;-83
2023/10/26 00:35:20;;;;;;;0.10;0.10;;;16.50;68.40;15.60;94771.00;;;;4995532;28;20206;-84
2023/10/26 00:37:47;;;;;;;0.90;0.10;;;16.50;68.30;15.60;94762.00;;;;5019746;28;20684;-84
2023/10/26 00:40:16;;;;;;;0.10;0.10;;;16.50;68.20;15.70;94773.00;;;;5019703;28;20228;-83
2023/10/26 00:42:43;;;;;;;0.20;0.10;;;16.50;68.00;15.70;94779.00;;;;5024307;28;20250;-83
2023/10/26 00:45:11;;;;;;;0.10;0.10;;;16.50;67.90;15.70;94779.00;;;;5030632;28;20194;-85
2023/10/26 00:47:39;;;;;;;0.43;0.17;;;16.60;67.90;15.70;94781.00;;;;5021650;28;20209;-84
2023/10/26 00:50:09;;;;;;;0.10;0.10;;;16.60;68.00;15.70;94783.00;;;;5014845;28;20256;-84
2023/10/26 00:52:39;;;;;;;0.40;0.13;;;16.60;67.90;15.70;94802.00;;;;5042618;28;20288;-84
2023/10/26 00:55:10;;;;;;;0.63;0.10;;;16.60;67.80;15.80;94799.00;;;;5034494;28;20620;-84
2023/10/26 00:57:37;;;;;;;0.40;0.20;;;16.60;67.70;15.80;94801.00;;;;5029883;28;20293;-84
2023/10/26 01:00:07;;;;;;;0.10;0.10;;;16.60;67.40;15.80;94814.00;;;;5031318;28;20281;-84
2023/10/26 01:02:35;;;;;;;0.17;0.17;;;16.70;67.50;15.80;94794.00;;;;5035425;28;20198;-84
2023/10/26 01:05:03;;;;;;;0.30;0.20;;;16.70;67.40;15.80;94794.00;;;;5025788;28;20209;-84
2023/10/26 01:07:30;;;;;;;0.10;0.10;;;16.60;67.20;15.80;94801.00;;;;5025337;28;20666;-83
2023/10/26 01:09:59;;;;;;;0.30;0.20;;;16.70;67.20;15.80;94797.00;;;;5021889;28;20223;-83
2023/10/26 01:12:27;;;;;;;0.10;0.10;;;16.70;67.20;15.80;94795.00;;;;5028725;28;20669;-84
2023/10/26 01:14:54;;;;;;;0.50;0.40;;;16.70;67.10;15.80;94804.00;;;;5009954;28;20193;-84
2023/10/26 01:17:23;;;;;;;0.43;0.20;;;16.70;67.10;15.90;94805.00;;;;5023928;28;20296;-83
2023/10/26 01:19:50;;;;;;;0.13;0.10;;;16.70;66.80;15.90;94802.00;;;;5010713;28;20301;-84
2023/10/26 01:22:19;;;;;;;0.07;0.00;;;16.70;66.90;15.80;94803.00;;;;5011302;28;20213;-85
2023/10/26 01:24:46;;;;;;;0.30;0.13;;;16.70;66.70;15.90;94804.00;;;;5026399;28;20630;-85
2023/10/26 01:27:13;;;;;;;0.50;0.23;;;16.70;66.60;15.90;94800.00;;;;5013385;28;20202;-84
2023/10/26 01:29:41;;;;;;;0.20;0.10;;;16.70;66.50;15.80;94802.00;;;;5003578;28;20249;-84
2023/10/26 01:32:08;;;;;;;0.07;0.07;;;16.70;66.60;15.80;94790.00;;;;5032638;28;20229;-84
2023/10/26 01:34:35;;;;;;;0.30;0.10;;;16.70;67.20;15.80;94793.00;;;;4996406;28;20198;-83
2023/10/26 01:37:05;;;;;;;0.37;0.37;;;16.70;66.40;15.80;94792.00;;;;5000432;28;20213;-83
2023/10/26 01:39:34;;;;;;;0.20;0.10;;;16.70;66.20;15.80;94784.00;;;;4999893;28;20217;-85
2023/10/26 01:42:02;;;;;;;0.30;0.10;;;16.70;66.10;15.80;94781.00;;;;5019846;28;20255;-84
2023/10/26 01:44:29;;;;;;;0.20;0.20;;;16.70;66.10;15.80;94777.00;;;;5034575;28;20288;-83
2023/10/26 01:46:56;;;;;;;0.93;0.20;;;16.70;66.00;15.80;94776.00;;;;5019038;28;20265;-84
2023/10/26 01:49:24;;;;;;;0.33;0.10;;;16.70;65.90;15.80;94780.00;;;;5011601;28;20305;-85
2023/10/26 01:51:51;;;;;;;0.10;0.10;;;16.70;65.90;15.80;94774.00;;;;5013176;28;20205;-84
2023/10/26 01:54:18;;;;;;;0.60;0.10;;;16.60;65.90;15.80;94777.00;;;;5007988;28;20194;-83
2023/10/26 01:56:47;;;;;;;0.30;0.30;;;16.70;65.80;15.80;94776.00;;;;5027015;28;20280;-84
2023/10/26 01:59:15;;;;;;;0.63;0.33;;;16.60;65.80;15.80;94777.00;;;;5018650;28;20221;-84
2023/10/26 02:01:42;;;;;;;0.10;0.10;;;16.70;65.80;15.70;94773.00;;;;4984920;28;20235;-83
2023/10/26 02:04:10;;;;;;;0.23;0.20;;;16.70;65.80;15.70;94775.00;;;;5024428;28;20633;-83
2023/10/26 02:06:37;;;;;;;0.30;0.17;;;16.70;65.80;15.70;94767.00;;;;5019048;28;20271;-83
2023/10/26 02:09:04;;;;;;;0.10;0.10;;;16.60;65.70;15.70;94763.00;;;;5034898;28;20308;-83
2023/10/26 02:11:32;;;;;;;0.10;0.10;;;16.60;65.60;15.70;94764.00;;;;5005256;28;20197;-83
2023/10/26 02:14:00;;;;;;;1.13;0.10;;;16.60;65.70;15.70;94759.00;;;;5010589;28;20205;-83
2023/10/26 02:16:28;;;;;;;0.10;0.07;;;16.60;65.80;15.70;94770.00;;;;5013123;28;20221;-83
2023/10/26 02:18:55;;;;;;;1.97;0.10;;;16.60;65.80;15.70;94765.00;;;;5016112;28;20263;-83
2023/10/26 02:21:22;;;;;;;0.20;0.03;;;16.60;65.60;15.70;94772.00;;;;5015582;28;20222;-84
2023/10/26 02:23:51;;;;;;;0.20;0.10;;;16.60;65.50;15.70;94767.00;;;;5006174;28;20206;-84
2023/10/26 02:26:21;;;;;;;0.10;0.10;;;16.60;65.50;15.60;94762.00;;;;4986918;28;20217;-83
2023/10/26 02:28:50;;;;;;;0.27;0.20;;;16.60;65.30;15.60;94765.00;;;;5033071;28;20244;-83
2023/10/26 02:31:18;;;;;;;0.10;0.10;;;16.60;65.40;15.60;94766.00;;;;5016248;28;20206;-83
2023/10/26 02:33:45;;;;;;;0.27;0.20;;;16.60;65.50;15.60;94771.00;;;;4998081;28;20229;-83
2023/10/26 02:36:13;;;;;;;0.03;0.03;;;16.60;65.60;15.60;94777.00;;;;5019278;28;20614;-84
2023/10/26 02:38:40;;;;;;;0.00;0.00;;;16.50;65.40;15.60;94775.00;;;;5018523;28;20300;-84
2023/10/26 02:41:07;;;;;;;0.10;0.10;;;16.50;65.30;15.50;94773.00;;;;5018640;28;20225;-83
2023/10/26 02:43:35;;;;;;;0.17;0.10;;;16.50;65.20;15.50;94772.00;;;;5017794;28;20236;-84
2023/10/26 02:46:05;;;;;;;0.10;0.10;;;16.60;65.20;15.50;94776.00;;;;5011067;28;20270;-83
2023/10/26 02:48:34;;;;;;;0.10;0.10;;;16.50;65.40;15.50;94771.00;;;;5021195;28;20210;-83
2023/10/26 02:51:03;;;;;;;0.47;0.23;;;16.40;65.40;15.40;94771.00;;;;5015419;28;20217;-83
2023/10/26 02:53:29;;;;;;;0.23;0.10;;;16.40;65.30;15.40;94767.00;;;;5022457;28;20289;-83
2023/10/26 02:55:56;;;;;;;0.30;0.30;;;16.40;65.40;15.40;94769.00;;;;5031957;28;20201;-84
2023/10/26 02:58:23;;;;;;;0.30;0.10;;;16.40;65.40;15.40;94769.00;;;;5013429;28;20536;-84
2023/10/26 03:00:53;;;;;;;0.93;0.17;;;16.40;65.60;15.40;94764.00;;;;5024485;28;20246;-83
2023/10/26 03:03:20;;;;;;;0.10;0.10;;;16.40;65.60;15.30;94767.00;;;;5031042;28;20212;-83
2023/10/26 03:05:49;;;;;;;0.30;0.20;;;16.40;65.60;15.30;94762.00;;;;5027327;28;20198;-84
2023/10/26 03:08:16;;;;;;;0.30;0.10;;;16.30;65.50;15.30;94763.00;;;;5021322;28;20310;-83
2023/10/26 03:10:45;;;;;;;0.80;0.10;;;16.30;65.80;15.30;94764.00;;;;5015271;28;20296;-84
2023/10/26 03:13:12;;;;;;;0.00;0.00;;;16.30;65.80;15.30;94771.00;;;;5007609;28;20240;-83
2023/10/26 03:15:40;;;;;;;0.43;0.10;;;16.30;66.20;15.20;94766.00;;;;5005548;28;20198;-83
2023/10/26 03:18:07;;;;;;;0.27;0.27;;;16.30;65.80;15.20;94760.00;;;;5024314;28;20202;-84
2023/10/26 03:20:36;;;;;;;0.40;0.30;;;16.20;65.90;15.20;94775.00;;;;5032913;28;20229;-83
2023/10/26 03:23:05;;;;;;;0.20;0.20;;;16.20;65.90;15.20;94760.00;;;;5033723;28;20220;-84
2023/10/26 03:25:32;;;;;;;0.87;0.10;;;16.20;65.80;15.20;94766.00;;;;5021291;28;20277;-83
2023/10/26 03:28:00;;;;;;;0.10;0.10;;;16.20;65.60;15.10;94767.00;;;;5038807;28;20280;-83
2023/10/26 03:30:27;;;;;;;0.33;0.10;;;16.20;65.30;15.10;94764.00;;;;5013340;28;20217;-83
2023/10/26 03:32:55;;;;;;;0.00;0.00;;;16.10;65.30;15.10;94762.00;;;;5038030;28;20206;-83
2023/10/26 03:35:22;;;;;;;0.20;0.10;;;16.10;65.00;15.00;94761.00;;;;5016791;28;20211;-83
2023/10/26 03:37:49;;;;;;;0.00;0.00;;;16.10;65.00;15.00;94759.00;;;;5031966;28;20228;-83
2023/10/26 03:40:18;;;;;;;0.10;0.10;;;16.10;65.00;15.00;94767.00;;;;5000542;28;20217;-84
2023/10/26 03:42:45;;;;;;;0.73;0.10;;;16.00;65.10;15.00;94764.00;;;;5038466;28;20267;-84
2023/10/26 03:45:13;;;;;;;0.20;0.10;;;16.00;65.10;14.90;94765.00;;;;5015329;28;20217;-83
2023/10/26 03:47:40;;;;;;;0.40;0.10;;;16.00;65.10;14.90;94760.00;;;;5029735;28;20300;-83
2023/10/26 03:50:08;;;;;;;0.13;0.13;;;15.90;65.20;14.90;94756.00;;;;5025612;28;20646;-83
2023/10/26 03:52:36;;;;;;;1.13;0.13;;;15.90;65.50;14.80;94758.00;;;;5022536;28;20230;-83
2023/10/26 03:55:04;;;;;;;0.30;0.10;;;15.90;65.50;14.80;94761.00;;;;5036096;28;20211;-83
2023/10/26 03:57:33;;;;;;;0.57;0.10;;;15.80;65.20;14.80;94758.00;;;;5016373;28;20220;-83
2023/10/26 04:00:01;;;;;;;1.17;0.20;;;15.80;65.20;14.80;94766.00;;;;5032965;28;20237;-84
2023/10/26 04:02:28;;;;;;;0.30;0.20;;;15.80;65.20;14.70;94770.00;;;;5011379;28;20772;-83
2023/10/26 04:04:57;;;;;;;0.20;0.20;;;15.80;65.20;14.70;94762.00;;;;5012276;28;20202;-84
2023/10/26 04:07:24;;;;;;;0.50;0.30;;;15.70;65.10;14.70;94760.00;;;;5012606;28;20198;-83
2023/10/26 04:09:51;;;;;;;0.20;0.20;;;15.70;65.20;14.70;94760.00;;;;5025651;28;20224;-84
2023/10/26 04:12:19;;;;;;;0.40;0.23;;;15.70;65.20;14.60;94758.00;;;;5015800;28;20209;-83
2023/10/26 04:14:49;;;;;;;0.30;0.10;;;15.70;65.20;14.60;94753.00;;;;5026301;28;20232;-83
2023/10/26 04:17:17;;;;;;;0.37;0.20;;;15.60;65.30;14.60;94761.00;;;;5027350;28;20232;-84
2023/10/26 04:19:44;;;;;;;0.30;0.30;;;15.60;65.40;14.60;94746.00;;;;5025116;28;20272;-84
2023/10/26 04:22:11;;;;;;;1.27;0.30;;;15.60;65.30;14.60;94741.00;;;;5018278;28;20257;-83
2023/10/26 04:24:39;;;;;;;0.40;0.30;;;15.60;65.30;14.50;94735.00;;;;5023487;28;20177;-84
2023/10/26 04:27:06;;;;;;;0.30;0.30;;;15.50;65.40;14.50;94737.00;;;;5024517;28;20674;-83
2023/10/26 04:29:33;;;;;;;0.90;0.90;;;15.50;65.30;14.50;94739.00;;;;5025304;28;20221;-84
2023/10/26 04:32:02;;;;;;;1.03;0.83;;;15.50;65.20;14.50;94736.00;;;;5018006;28;20226;-84
2023/10/26 04:34:30;;;;;;;2.20;1.63;;;15.50;65.20;14.50;94738.00;;;;5037898;28;20209;-83
2023/10/26 04:36:57;;;;;;;1.20;1.10;;;15.50;65.30;14.50;94734.00;;;;5037575;28;20206;-83
2023/10/26 04:39:24;;;;;;;1.00;0.60;;;15.50;65.40;14.40;94729.00;;;;5026951;28;20260;-83
2023/10/26 04:41:51;;;;;;;0.40;0.40;;;15.40;65.20;14.40;94730.00;;;;5045479;28;20251;-84
2023/10/26 04:44:19;;;;;;;0.30;0.30;;;15.40;65.20;14.40;94737.00;;;;5018443;28;20217;-84
2023/10/26 04:46:47;;;;;;;0.60;0.60;;;15.40;65.20;14.40;94736.00;;;;5025916;28;20223;-84
2023/10/26 04:49:16;;;;;;;0.20;0.20;;;15.40;65.30;14.30;94739.00;;;;5042563;28;20245;-84
2023/10/26 04:51:44;;;;;;;0.30;0.30;;;15.40;65.50;14.30;94735.00;;;;5024527;28;20197;-83
2023/10/26 04:54:12;;;;;;;1.17;0.50;;;15.30;65.70;14.30;94731.00;;;;4992242;28;20286;-83
2023/10/26 04:56:41;;;;;;;0.20;0.20;;;15.30;65.80;14.30;94734.00;;;;5017028;28;20280;-83
2023/10/26 04:59:09;;;;;;;0.50;0.40;;;15.30;65.80;14.20;94732.00;;;;5021698;28;20662;-84
2023/10/26 05:01:37;;;;;;;0.40;0.40;;;15.30;65.80;14.20;94728.00;;;;5027242;28;20316;-84
2023/10/26 05:04:04;;;;;;;0.30;0.30;;;15.30;65.70;14.10;94730.00;;;;5020785;28;20237;-84
2023/10/26 05:06:35;;;;;;;0.30;0.30;;;15.30;65.60;14.00;94731.00;;;;5009778;28;20272;-84
2023/10/26 05:09:03;;;;;;;0.83;0.40;;;15.20;65.80;14.00;94732.00;;;;5010518;28;20257;-84
2023/10/26 05:11:31;;;;;;;0.50;0.40;;;15.20;65.90;13.90;94735.00;;;;5029717;28;20194;-84
2023/10/26 05:13:58;;;;;;;0.20;0.20;;;15.20;65.90;13.90;94733.00;;;;5028296;28;20681;-84
2023/10/26 05:16:26;;;;;;;0.50;0.50;;;15.10;65.80;13.90;94731.00;;;;5033797;28;20257;-84
2023/10/26 05:18:53;;;;;;;0.87;0.27;;;15.10;65.80;13.80;94727.00;;;;5029665;28;20308;-84
2023/10/26 05:21:20;;;;;;;0.20;0.20;;;15.00;65.80;13.70;94720.00;;;;5032600;28;20197;-83
2023/10/26 05:23:49;;;;;;;0.70;0.40;;;15.00;66.50;13.70;94724.00;;;;5014992;28;20240;-84
2023/10/26 05:26:16;;;;;;;0.40;0.30;;;15.00;65.90;13.70;94716.00;;;;5033531;28;20221;-83
2023/10/26 05:28:45;;;;;;;0.30;0.30;;;14.90;65.80;13.60;94720.00;;;;5031077;28;20757;-83
2023/10/26 05:31:12;;;;;;;1.00;0.50;;;14.90;65.80;13.60;94713.00;;;;5039508;28;20284;-84
2023/10/26 05:33:39;;;;;;;0.50;0.43;;;14.80;65.90;13.50;94713.00;;;;5031705;28;20197;-84
2023/10/26 05:36:08;;;;;;;0.53;0.30;;;14.80;66.10;13.50;94715.00;;;;5033564;28;20694;-84
2023/10/26 05:38:35;;;;;;;0.33;0.30;;;14.80;66.30;13.50;94720.00;;;;5039370;28;20264;-83
2023/10/26 05:41:05;;;;;;;0.80;0.50;;;14.70;66.20;13.40;94719.00;;;;5027792;28;20633;-83
2023/10/26 05:43:33;;;;;;;0.33;0.20;;;14.70;66.30;13.40;94724.00;;;;5032122;28;20225;-83
2023/10/26 05:46:04;;;;;;;0.30;0.30;;;14.60;66.40;13.40;94726.00;;;;5035918;28;20277;-83
2023/10/26 05:48:33;;;;;;;0.40;0.40;;;14.60;66.60;13.30;94725.00;;;;5043738;28;20207;-84
2023/10/26 05:51:01;;;;;;;0.47;0.30;;;14.60;66.70;13.30;94722.00;;;;5008787;28;20198;-84
2023/10/26 05:53:30;;;;;;;0.63;0.40;;;14.60;66.70;13.30;94723.00;;;;5039550;28;20229;-83
2023/10/26 05:55:59;;;;;;;0.43;0.30;;;14.60;66.80;13.30;94732.00;;;;5012635;28;20197;-83
2023/10/26 05:58:28;;;;;;;0.30;0.30;;;14.50;66.90;13.30;94727.00;;;;4991580;28;20205;-83
2023/10/26 06:00:56;;;;;;;0.57;0.33;;;14.50;67.10;13.30;94726.00;;;;5010085;28;20655;-83
2023/10/26 06:03:23;;;;;;;0.20;0.20;;;14.50;67.30;13.20;94724.00;;;;5001270;28;20213;-83
2023/10/26 06:05:51;;;;;;;0.20;0.20;;;14.50;67.40;13.20;94730.00;;;;5029106;28;20206;-83
2023/10/26 06:08:18;;;;;;;0.33;0.33;;;14.50;67.60;13.30;94723.00;;;;5016351;28;20271;-83
2023/10/26 06:10:45;;;;;;;1.10;0.80;;;14.50;67.70;13.30;94726.00;;;;5023791;28;20230;-83
2023/10/26 06:13:13;;;;;;;1.23;0.50;;;14.50;67.80;13.20;94735.00;;;;5018579;28;20198;-83
2023/10/26 06:15:42;;;;;;;0.73;0.50;;;14.40;67.80;13.20;94737.00;;;;5033518;28;20208;-83
2023/10/26 06:18:12;;;;;;;0.70;0.40;;;14.50;68.00;13.20;94738.00;;;;5021262;28;20292;-83
2023/10/26 06:20:39;;;;;;;0.50;0.33;;;14.50;68.00;13.20;94735.00;;;;4998517;28;20261;-83
2023/10/26 06:23:07;;;;;;;0.77;0.40;;;14.50;68.10;13.20;94738.00;;;;5034456;28;20309;-83
2023/10/26 06:25:36;;;;;;;0.30;0.30;;;14.50;68.20;13.20;94740.00;;;;5028473;28;20194;-83
2023/10/26 06:28:04;;;;;;;0.30;0.30;;;14.40;68.20;13.30;94748.00;;;;5035194;28;20265;-83
2023/10/26 06:30:34;;;;;;;0.30;0.30;;;14.50;68.40;13.30;94745.00;;;;5024592;28;20213;-83
2023/10/26 06:33:03;;;;;;;0.27;0.27;;;14.50;68.70;13.30;94748.00;;;;5011941;28;20213;-83
2023/10/26 06:35:30;;;;;;;0.37;0.30;;;14.50;68.70;13.30;94755.00;;;;5038370;28;20229;-84
2023/10/26 06:37:58;;;;;;;0.40;0.40;;;14.50;68.70;13.30;94755.00;;;;5017829;28;20205;-83
2023/10/26 06:40:26;;;;;;;0.63;0.47;;;14.50;68.80;13.30;94751.00;;;;5021143;28;20221;-84
2023/10/26 06:42:53;;;;;;;0.50;0.40;;;14.50;68.90;13.30;94753.00;;;;5041856;28;20232;-83
2023/10/26 06:45:21;;;;;;;0.40;0.40;;;14.50;68.90;13.30;94755.00;;;;5033901;28;20220;-83
2023/10/26 06:47:48;;;;;;;0.60;0.60;;;14.50;69.10;13.40;94755.00;;;;5020561;28;20228;-83
2023/10/26 06:50:17;;;;;;;0.70;0.70;;;14.50;69.20;13.40;94751.00;;;;5027984;28;20224;-83
2023/10/26 06:52:44;;;;;;;0.40;0.40;;;14.60;69.40;13.40;94746.00;;;;5032784;28;20284;-83
2023/10/26 06:55:15;;;;;;;1.90;0.50;;;14.60;69.50;13.50;94746.00;;;;5028168;28;20273;-83
2023/10/26 06:57:42;;;;;;;1.03;0.43;;;14.60;69.60;13.50;94749.00;;;;5031428;28;20202;-83
2023/10/26 07:00:11;;;;;;;0.77;0.50;;;14.60;69.60;13.60;94747.00;;;;5016176;28;20292;-79
2023/10/26 07:02:38;;;;;;;0.80;0.47;;;14.70;69.80;13.60;94746.00;;;;5004814;28;20229;-79
2023/10/26 07:05:06;;;;;;;0.90;0.50;;;14.70;69.90;13.70;94751.00;;;;5041591;28;20267;-78
2023/10/26 07:07:36;;;;;;;0.40;0.40;;;14.70;69.70;13.80;94739.00;;;;5044706;28;20194;-79
2023/10/26 07:10:04;;;;;;;0.40;0.40;;;14.80;69.60;13.90;94753.00;;;;5007090;28;20210;-80
2023/10/26 07:12:31;;;;;;;0.83;0.53;;;14.90;69.80;14.00;94750.00;;;;5027700;28;20201;-80
2023/10/26 07:14:59;;;;;;;1.30;0.63;;;15.00;69.70;14.10;94743.00;;;;5024137;28;20226;-79
2023/10/26 07:17:27;;;;;;;1.40;0.50;;;15.00;69.60;14.20;94738.00;;;;5044672;28;20668;-79
2023/10/26 07:19:54;;;;;;;0.97;0.60;;;15.10;69.50;14.20;94739.00;;;;5037647;28;20221;-78
2023/10/26 07:22:22;;;;;;;0.50;0.50;;;15.20;69.60;14.30;94743.00;;;;5040101;28;20288;-80
2023/10/26 07:24:50;;;;;;;1.10;0.60;;;15.30;69.80;14.40;94739.00;;;;5016566;28;20570;-80
2023/10/26 07:27:18;;;;;;;0.63;0.50;;;15.30;69.80;14.50;94743.00;;;;4991948;28;20749;-80
2023/10/26 07:29:47;;;;;;;3.23;0.90;;;15.40;69.90;14.50;94746.00;;;;5035955;28;20228;-79
2023/10/26 07:32:14;;;;;;;0.73;0.60;;;15.50;70.00;14.50;94746.00;;;;5035857;28;20194;-79
2023/10/26 07:34:42;;;;;;;0.57;0.50;;;15.50;69.90;14.60;94750.00;;;;5016254;28;20284;-80
2023/10/26 07:37:09;;;;;;;0.67;0.60;;;15.50;69.80;14.70;94747.00;;;;5031043;28;20211;-78
2023/10/26 07:39:38;;;;;;;0.80;0.60;;;15.60;69.80;14.70;94753.00;;;;5029108;28;20219;-79
2023/10/26 07:42:08;;;;;;;0.60;0.50;;;15.70;69.80;14.70;94752.00;;;;4984624;28;20198;-80
2023/10/26 07:44:37;;;;;;;1.27;0.40;;;15.70;69.70;14.80;94747.00;;;;5028089;28;20201;-80
2023/10/26 07:47:08;;;;;;;0.77;0.77;;;15.70;70.30;14.80;94750.00;;;;5022254;28;20297;-80
2023/10/26 07:49:35;;;;;;;0.47;0.40;;;15.80;69.70;14.90;94755.00;;;;5031824;28;20217;-79
2023/10/26 07:52:03;;;;;;;1.50;0.93;;;15.80;69.60;14.90;94761.00;;;;5037883;28;20209;-80
2023/10/26 07:54:30;;;;;;;0.50;0.50;;;15.90;69.80;14.90;94754.00;;;;5011101;28;20194;-80
2023/10/26 07:56:57;;;;;;;1.03;0.60;;;15.90;69.90;15.00;94750.00;;;;5007327;28;20198;-79
2023/10/26 07:59:26;;;;;;;0.53;0.53;;;15.90;69.90;15.00;94741.00;;;;5027880;28;20300;-79
2023/10/26 08:02:07;;;;;;;0.60;0.60;;;16.00;69.90;15.10;94752.00;;;;5009802;28;20206;-80
2023/10/26 08:04:34;;;;;;;0.67;0.57;;;16.00;69.90;15.10;94747.00;;;;5027867;28;20213;-80
2023/10/26 08:07:01;;;;;;;0.50;0.50;;;16.10;70.10;15.10;94735.00;;;;5007829;28;20209;-80
2023/10/26 08:09:33;;;;;;;0.40;0.40;;;16.10;70.10;15.20;94737.00;;;;5028842;28;20300;-81
2023/10/26 08:12:00;;;;;;;0.50;0.50;;;16.20;70.10;15.20;94740.00;;;;5004330;28;20255;-80
2023/10/26 08:14:29;;;;;;;0.60;0.60;;;16.20;70.10;15.30;94739.00;;;;4995426;28;20201;-80
2023/10/26 08:16:59;;;;;;;0.63;0.60;;;16.20;70.20;15.30;94744.00;;;;5006076;28;20210;-81
2023/10/26 08:19:27;;;;;;;0.87;0.63;;;16.30;70.20;15.40;94740.00;;;;5032130;28;20221;-80
2023/10/26 08:21:55;;;;;;;0.60;0.53;;;16.30;70.20;15.40;94746.00;;;;5026156;28;20703;-80
2023/10/26 08:24:23;;;;;;;1.13;0.60;;;16.40;70.30;15.50;94752.00;;;;5011340;28;20236;-80
2023/10/26 08:26:51;;;;;;;0.60;0.60;;;16.40;70.40;15.60;94754.00;;;;5025844;28;20213;-79
2023/10/26 08:29:18;;;;;;;0.73;0.53;;;16.50;70.50;15.70;94756.00;;;;5024265;28;20225;-79
2023/10/26 08:31:48;;;;;;;0.90;0.90;;;16.50;70.50;15.70;94767.00;;;;5026620;28;20201;-79
2023/10/26 08:34:16;;;;;;;1.37;0.90;;;16.60;70.50;15.70;94765.00;;;;4995020;28;20193;-80
2023/10/26 08:36:44;;;;;;;1.07;0.60;;;16.60;70.30;15.80;94759.00;;;;5010265;28;20292;-79
2023/10/26 08:39:12;;;;;;;1.27;0.40;;;16.70;70.20;15.80;94755.00;;;;5028218;28;20281;-79
2023/10/26 08:41:43;;;;;;;1.57;0.70;;;16.70;70.30;15.90;94754.00;;;;5031934;28;20204;-79
2023/10/26 08:44:11;;;;;;;0.70;0.60;;;16.80;70.40;15.90;94754.00;;;;5011183;28;20230;-78
2023/10/26 08:46:40;;;;;;;0.60;0.57;;;16.80;70.50;16.00;94757.00;;;;5009038;28;20205;-79
2023/10/26 08:49:10;;;;;;;0.80;0.50;;;16.90;70.60;16.00;94754.00;;;;5009101;28;20293;-79
2023/10/26 08:51:38;;;;;;;0.50;0.40;;;16.90;70.70;16.10;94751.00;;;;5011866;28;20273;-79
2023/10/26 08:54:08;;;;;;;0.57;0.40;;;17.00;70.80;16.20;94739.00;;;;5026194;28;20693;-80
2023/10/26 08:56:35;;;;;;;0.77;0.47;;;17.00;70.90;16.20;94746.00;;;;5027259;28;20288;-80
2023/10/26 08:59:02;;;;;;;0.50;0.40;;;17.10;70.90;16.30;94742.00;;;;5024299;28;20587;-80
2023/10/26 09:01:30;;;;;;;0.50;0.50;;;17.20;70.90;16.40;94749.00;;;;5025570;28;20658;-80
2023/10/26 09:03:58;;;;;;;0.53;0.33;;;17.20;70.80;16.40;94742.00;;;;5022933;28;20228;-80
2023/10/26 09:06:44;;;;;;;0.40;0.40;;;17.30;70.80;16.50;94741.00;;;;5029469;28;20246;-80
2023/10/26 09:09:11;;;;;;;0.93;0.50;;;17.30;71.00;16.60;94745.00;;;;5027289;28;20598;-79
2023/10/26 09:11:39;;;;;;;0.30;0.30;;;17.40;71.00;16.70;94741.00;;;;5028018;28;20202;-81
2023/10/26 09:14:17;;;;;;;0.60;0.20;;;17.50;72.00;16.70;94747.00;;;;5028674;28;20640;-80
2023/10/26 09:16:46;;;;;;;0.77;0.77;;;17.50;71.10;16.80;94741.00;;;;5028797;28;20212;-81
2023/10/26 09:19:15;;;;;;;1.70;1.60;;;17.60;70.80;16.90;94746.00;;;;4995815;28;20224;-79
2023/10/26 09:21:52;;;;;;;1.20;1.10;;;17.70;70.50;16.90;94750.00;;;;5028777;28;20229;-81
2023/10/26 09:24:24;;;;;;;2.97;2.73;;;17.70;70.10;17.00;94743.00;;;;5025371;28;20223;-80
2023/10/26 09:26:55;;;;;;;1.83;1.73;;;17.80;70.10;17.00;94748.00;;;;5022904;28;20292;-80
2023/10/26 09:29:36;;;;;;;1.27;1.17;;;17.80;70.00;17.10;94754.00;;;;5022378;28;20217;-80
2023/10/26 09:32:04;;;;;;;0.80;0.80;;;17.90;70.10;17.10;94766.00;;;;5029329;28;20221;-80
2023/10/26 09:34:39;;;;;;;0.80;0.60;;;17.90;70.00;17.20;94770.00;;;;5032937;28;20197;-79
2023/10/26 09:37:10;;;;;;;0.60;0.60;;;18.00;69.80;17.20;94778.00;;;;5006250;28;20198;-80
2023/10/26 09:39:41;;;;;;;0.40;0.40;;;18.00;69.90;17.20;94776.00;;;;5036647;28;20332;-80
2023/10/26 09:42:10;;;;;;;0.63;0.63;;;18.00;69.90;17.20;94781.00;;;;5020959;28;20198;-80
2023/10/26 09:44:38;;;;;;;1.10;0.53;;;18.10;69.80;17.20;94782.00;;;;5011577;28;20217;-80
2023/10/26 09:47:07;;;;;;;0.40;0.40;;;18.10;69.80;17.20;94778.00;;;;5023673;28;20576;-80
2023/10/26 09:49:34;;;;;;;0.40;0.37;;;18.10;70.10;17.20;94775.00;;;;5008043;28;20221;-81
2023/10/26 09:52:01;;;;;;;0.30;0.30;;;18.10;70.00;17.20;94770.00;;;;5003170;28;20658;-80
2023/10/26 09:54:35;;;;;;;0.40;0.40;;;18.10;70.00;17.20;94776.00;;;;5026425;28;20228;-80
2023/10/26 09:57:12;;;;;;;0.40;0.30;;;18.10;70.20;17.20;94781.00;;;;5023527;28;20206;-80
2023/10/26 09:59:39;;;;;;;0.40;0.30;;;18.10;70.20;17.10;94790.00;;;;5008223;28;20682;-81
2023/10/26 10:02:15;;;;;;;1.10;0.40;;;18.10;70.20;17.10;94782.00;;;;5002413;28;20208;-81
2023/10/26 10:04:43;;;;;;;1.43;0.47;;;18.00;70.50;17.10;94783.00;;;;5023582;28;20251;-81
2023/10/26 10:07:17;;;;;;;0.20;0.20;;;18.00;70.20;17.00;94782.00;;;;5004080;28;20197;-80
2023/10/26 10:10:09;;;;;;;0.20;0.20;;;18.00;70.20;16.90;94779.00;;;;5025775;28;20229;-82
2023/10/26 10:12:38;;;;;;;0.53;0.20;;;17.90;70.70;16.90;94783.00;;;;5023591;28;20204;-80
2023/10/26 10:15:09;;;;;;;1.17;0.40;;;17.90;70.30;16.90;94786.00;;;;5025100;28;20201;-80
2023/10/26 10:18:13;;;;;;;0.40;0.20;;;17.80;70.50;16.80;94784.00;;;;5020683;28;20232;-80
2023/10/26 10:20:42;;;;;;;0.30;0.30;;;17.80;71.20;16.80;94794.00;;;;5023833;28;20221;-80
2023/10/26 10:23:29;;;;;;;0.40;0.40;;;17.80;71.00;16.70;94793.00;;;;5015950;28;20621;-80
2023/10/26 10:26:00;;;;;;;1.03;0.40;;;17.70;71.20;16.70;94792.00;;;;5018857;28;20190;-80
2023/10/26 10:28:51;;;;;;;0.43;0.40;;;17.70;71.50;16.70;94785.00;;;;5005598;28;20616;-80
2023/10/26 10:31:39;;;;;;;0.23;0.20;;;17.60;71.60;16.60;94798.00;;;;5003398;28;20612;-80
2023/10/26 10:34:10;;;;;;;1.53;0.50;;;17.60;71.00;16.60;94794.00;;;;5024817;28;20213;-80
2023/10/26 10:37:09;;;;;;;0.37;0.20;;;17.60;71.10;16.60;94800.00;;;;5024361;28;20248;-79
2023/10/26 10:39:37;;;;;;;0.50;0.50;;;17.50;71.60;16.50;94793.00;;;;5016551;28;20214;-80
2023/10/26 10:42:10;;;;;;;1.00;0.90;;;17.50;71.20;16.50;94781.00;;;;5008410;28;20866;-80
2023/10/26 10:44:39;;;;;;;0.73;0.63;;;17.50;71.40;16.50;94779.00;;;;5021165;28;20279;-80
2023/10/26 10:47:07;;;;;;;3.07;2.77;;;17.50;71.40;16.40;94770.00;;;;5017946;28;20230;-80
2023/10/26 10:49:34;;;;;;;1.00;0.90;;;17.40;71.30;16.40;94765.00;;;;5023930;28;20321;-80
2023/10/26 10:52:12;;;;;;;1.27;0.70;;;17.40;71.30;16.40;94764.00;;;;5004874;28;20201;-80
2023/10/26 10:54:40;;;;;;;0.57;0.50;;;17.40;71.50;16.30;94747.00;;;;5023101;28;20208;-79
2023/10/26 10:57:08;;;;;;;0.50;0.40;;;17.30;71.80;16.30;94755.00;;;;5024758;28;20205;-79
2023/10/26 10:59:36;;;;;;;0.53;0.53;;;17.30;72.20;16.30;94761.00;;;;5008038;28;20745;-79
2023/10/26 11:02:12;;;;;;;0.60;0.60;;;17.30;73.30;16.30;94757.00;;;;5006770;28;20224;-79